»·PEaware :: SWA549 KSNA-KOAK

SWA549 :: KSNA-KOAK

FLIGHT INFORMATION

Flight Status: Arrived
Operator:
Southwest Airlines
More flights by this operator :: More flights under this callsign
Pilot: Alec D. (17934)
Aircraft: BOEING 737-700
(B737)
More flights by this aircraft type
Origin: KSNA John Wayne-Orange Co
United States
Destination: KOAK Metro Oakland Intl
United States
More flights between these airports :: More routes between these airports
Route: HHERO3 OROSZ COREZ RGOOD EMZOH3
File this flight plan on PilotEdge
Remarks:
Altitude:
(Current/Filed)
38,000ft
Speed:
(Current/Filed)
450kts
Departed: 29-Mar-20 04:15 PM
Arrived: 29-Mar-20 05:20 PM
Distance/Time
Traveled:
322nm/1:04
Distance/Time
To Go:
Arrived

Flight Plot

Page will automatically refresh every two minutes.

Flight plan parsing failed; only flown route is shown


Map Options




Map Legend


Flown Route
Filed Route
Departure Airport
Arrival Airport
Navaid (VOR, NDB)
Fix

Horizontal Profiles

Position Reports

Time Latitude Longitude Heading Altitude Ground
Speed
29-Mar-20 15:51 33.680482 -117.861255 116 66ft 0kts
29-Mar-20 15:52 33.680482 -117.861255 116 66ft 0kts
29-Mar-20 15:53 33.680482 -117.861255 116 66ft 0kts
29-Mar-20 15:54 33.680482 -117.861255 116 66ft 0kts
29-Mar-20 15:55 33.680482 -117.861255 116 66ft 0kts
29-Mar-20 15:56 33.680482 -117.861255 116 66ft 0kts
29-Mar-20 15:57 33.680482 -117.861255 116 66ft 0kts
29-Mar-20 15:58 33.680482 -117.861255 116 66ft 0kts
29-Mar-20 15:59 33.680482 -117.861255 116 66ft 0kts
29-Mar-20 16:00 33.680482 -117.861255 116 66ft 0kts
29-Mar-20 16:01 33.680482 -117.861255 116 66ft 0kts
29-Mar-20 16:02 33.680482 -117.861255 116 66ft 0kts
29-Mar-20 16:03 33.680482 -117.861255 116 66ft 0kts
29-Mar-20 16:04 33.680482 -117.861255 116 66ft 0kts
29-Mar-20 16:05 33.680482 -117.861255 116 66ft 0kts
29-Mar-20 16:06 33.680763 -117.861662 173 66ft 2kts
29-Mar-20 16:07 33.680901 -117.861640 202 66ft 0kts
29-Mar-20 16:08 33.680895 -117.861644 202 66ft 0kts
29-Mar-20 16:09 33.680795 -117.861731 226 66ft 1kts
29-Mar-20 16:10 33.681163 -117.864398 297 66ft 0kts
29-Mar-20 16:11 33.681166 -117.864406 297 66ft 0kts
29-Mar-20 16:12 33.681170 -117.864413 297 66ft 0kts
29-Mar-20 16:13 33.681280 -117.864668 297 66ft 6kts
29-Mar-20 16:14 33.672032 -117.871165 209 88ft 134kts
29-Mar-20 16:15 33.630039 -117.895204 190 2483ft 208kts
29-Mar-20 16:16 33.562447 -117.899052 187 4981ft 273kts
29-Mar-20 16:17 33.510071 -117.958499 240 7693ft 271kts
29-Mar-20 16:18 33.466836 -118.032329 235 9459ft 277kts
29-Mar-20 16:19 33.423865 -118.116018 244 12741ft 315kts
29-Mar-20 16:20 33.417803 -118.218337 288 16149ft 325kts
29-Mar-20 16:22 33.448715 -118.320326 293 19632ft 328kts
29-Mar-20 16:23 33.491282 -118.418770 294 22535ft 337kts
29-Mar-20 16:24 33.573698 -118.475447 343 24942ft 384kts
29-Mar-20 16:25 33.686119 -118.465645 355 26639ft 418kts
29-Mar-20 16:26 33.802821 -118.459557 347 28291ft 421kts
29-Mar-20 16:27 33.922218 -118.459726 346 29690ft 435kts
29-Mar-20 16:28 34.038923 -118.477542 322 30865ft 404kts
29-Mar-20 16:29 34.143322 -118.531594 325 32135ft 414kts
29-Mar-20 16:30 34.249928 -118.585947 325 33445ft 414kts
29-Mar-20 16:31 34.356011 -118.639305 325 34713ft 412kts
29-Mar-20 16:32 34.459961 -118.695330 315 35676ft 399kts
29-Mar-20 16:33 34.555713 -118.765309 319 36690ft 403kts
29-Mar-20 16:34 34.652741 -118.834049 320 37549ft 405kts
29-Mar-20 16:35 34.750192 -118.903301 320 38131ft 406kts
29-Mar-20 16:36 34.847201 -118.972432 320 38141ft 405kts
29-Mar-20 16:37 34.944681 -119.042089 320 38145ft 406kts
29-Mar-20 16:38 35.042426 -119.112117 321 38147ft 406kts
29-Mar-20 16:39 35.139790 -119.182089 321 38151ft 406kts
29-Mar-20 16:40 35.237247 -119.252308 321 38156ft 407kts
29-Mar-20 16:41 35.334652 -119.322704 321 38157ft 407kts
29-Mar-20 16:41 35.416313 -119.381864 322 38160ft 408kts
29-Mar-20 16:43 35.530456 -119.464801 322 38165ft 409kts
29-Mar-20 16:44 35.619051 -119.548414 315 38164ft 401kts
29-Mar-20 16:44 35.691192 -119.621155 314 38169ft 402kts
29-Mar-20 16:45 35.777419 -119.709485 314 38171ft 403kts
29-Mar-20 16:47 35.877960 -119.812792 315 38172ft 404kts
29-Mar-20 16:47 35.947424 -119.889975 311 38169ft 402kts
29-Mar-20 16:48 36.027995 -119.985696 311 38169ft 402kts
29-Mar-20 16:49 36.108570 -120.081469 311 38170ft 402kts
29-Mar-20 16:50 36.189174 -120.177563 311 38169ft 401kts
29-Mar-20 16:51 36.269526 -120.273638 311 38169ft 401kts
29-Mar-20 16:52 36.349481 -120.369525 312 36418ft 396kts
29-Mar-20 16:53 36.427803 -120.463742 313 34318ft 387kts
29-Mar-20 16:54 36.503572 -120.555150 313 32341ft 374kts
29-Mar-20 16:55 36.578478 -120.641331 317 30495ft 358kts
29-Mar-20 16:56 36.651210 -120.721842 317 28759ft 342kts
29-Mar-20 16:57 36.722888 -120.801456 317 26741ft 352kts
29-Mar-20 16:58 36.795386 -120.882026 318 24617ft 343kts
29-Mar-20 16:59 36.863253 -120.957262 318 23260ft 315kts
29-Mar-20 17:00 36.927126 -121.028255 318 21653ft 301kts
29-Mar-20 17:01 36.991123 -121.099539 318 20154ft 309kts
29-Mar-20 17:02 37.054748 -121.170579 318 18557ft 304kts
29-Mar-20 17:03 37.117803 -121.241144 318 16619ft 302kts
29-Mar-20 17:04 37.179072 -121.311692 316 14747ft 294kts
29-Mar-20 17:05 37.238443 -121.380745 316 12927ft 290kts
29-Mar-20 17:06 37.297296 -121.449337 316 11237ft 289kts
29-Mar-20 17:07 37.354837 -121.516555 316 10099ft 270kts
29-Mar-20 17:08 37.409403 -121.579454 316 8839ft 267kts
29-Mar-20 17:09 37.459327 -121.648050 304 7573ft 264kts
29-Mar-20 17:10 37.501538 -121.722188 304 6805ft 259kts
29-Mar-20 17:11 37.535918 -121.799764 279 6132ft 255kts
29-Mar-20 17:12 37.544849 -121.887879 277 5062ft 249kts
29-Mar-20 17:13 37.554766 -121.973396 277 4491ft 240kts
29-Mar-20 17:14 37.586842 -122.043501 310 3503ft 228kts
29-Mar-20 17:15 37.625130 -122.099841 308 2331ft 195kts
29-Mar-20 17:16 37.655577 -122.145463 308 1387ft 155kts
29-Mar-20 17:17 37.682151 -122.185222 308 607ft 131kts
29-Mar-20 17:18 37.706044 -122.221039 308 17ft 115kts
29-Mar-20 17:19 37.715084 -122.232903 356 16ft 0kts
29-Mar-20 17:20 37.715094 -122.232904 356 16ft 0kts
29-Mar-20 17:21 37.715194 -122.231329 129 16ft 17kts
29-Mar-20 17:22 37.711612 -122.225829 129 16ft 24kts
29-Mar-20 17:23 37.714229 -122.220288 84 16ft 16kts
29-Mar-20 17:24 37.711739 -122.217080 129 16ft 0kts
29-Mar-20 17:25 37.711739 -122.217080 129 16ft 0kts

Navigation Log

Ident Type
Flight plan parsing failed, navigation log unavailable